createdAt,value
2022-08-31T00:02:01.147Z,26.90
2022-08-31T00:04:30.326Z,27.20
2022-08-31T00:06:58.461Z,26.80
2022-08-31T00:09:28.433Z,26.90
2022-08-31T00:11:56.447Z,27.10
2022-08-31T00:14:25.969Z,26.80
2022-08-31T00:16:54.847Z,27.10
2022-08-31T00:19:22.998Z,26.50
2022-08-31T00:21:51.377Z,26.80
2022-08-31T00:24:19.457Z,26.80
2022-08-31T00:26:49.125Z,27.10
2022-08-31T00:29:17.245Z,26.70
2022-08-31T00:31:45.510Z,27.00
2022-08-31T00:34:14.080Z,26.70
2022-08-31T00:36:42.158Z,26.60
2022-08-31T00:39:10.239Z,26.80
2022-08-31T00:41:39.812Z,26.80
2022-08-31T00:44:12.464Z,26.70
2022-08-31T00:46:44.556Z,26.50
2022-08-31T00:49:16.873Z,26.80
2022-08-31T00:51:55.072Z,26.80
2022-08-31T00:54:28.482Z,26.70
2022-08-31T00:56:56.826Z,26.80
2022-08-31T00:59:27.820Z,26.70
2022-08-31T01:01:56.077Z,26.60
2022-08-31T01:04:24.501Z,26.60
2022-08-31T01:06:53.247Z,26.70
2022-08-31T01:09:24.107Z,26.70
2022-08-31T01:11:52.520Z,26.70
2022-08-31T01:14:20.659Z,26.80
2022-08-31T01:16:53.753Z,26.80
2022-08-31T01:19:31.747Z,26.60
2022-08-31T01:22:11.705Z,26.70
2022-08-31T01:24:45.820Z,26.90
2022-08-31T01:27:15.282Z,26.80
2022-08-31T01:29:43.329Z,26.70
2022-08-31T01:32:11.609Z,26.60
2022-08-31T01:34:39.859Z,26.70
2022-08-31T01:37:08.035Z,26.60
2022-08-31T01:39:36.181Z,26.50
2022-08-31T01:42:06.272Z,26.50
2022-08-31T01:44:34.346Z,26.50
2022-08-31T01:47:02.554Z,26.30
2022-08-31T01:49:30.924Z,26.60
2022-08-31T01:51:59.033Z,26.60
2022-08-31T01:54:27.688Z,26.90
2022-08-31T01:56:57.394Z,26.50
2022-08-31T01:59:27.191Z,26.60
2022-08-31T02:01:57.549Z,26.50
2022-08-31T02:04:29.110Z,26.70
2022-08-31T02:07:00.153Z,26.90
2022-08-31T02:09:29.702Z,26.50
2022-08-31T02:11:57.913Z,26.60
2022-08-31T02:14:27.263Z,26.60
2022-08-31T02:16:55.768Z,26.60
2022-08-31T02:19:23.951Z,26.60
2022-08-31T02:21:52.025Z,26.50
2022-08-31T02:24:20.132Z,26.50
2022-08-31T02:26:51.774Z,26.60
2022-08-31T02:29:22.105Z,26.60
2022-08-31T02:31:51.819Z,26.60
2022-08-31T02:34:20.093Z,26.60
2022-08-31T02:36:48.298Z,26.60
2022-08-31T02:39:16.425Z,26.70
2022-08-31T02:41:44.481Z,26.60
2022-08-31T02:44:12.646Z,26.20
2022-08-31T02:46:40.903Z,26.50
2022-08-31T02:49:10.373Z,26.60
2022-08-31T02:51:41.717Z,26.50
2022-08-31T02:54:11.044Z,26.70
2022-08-31T02:56:39.352Z,26.50
2022-08-31T02:59:08.745Z,26.40
2022-08-31T03:01:38.020Z,26.70
2022-08-31T03:04:06.176Z,26.40
2022-08-31T03:06:35.902Z,26.60
2022-08-31T03:09:04.712Z,26.50
2022-08-31T03:11:33.530Z,26.40
2022-08-31T03:14:01.580Z,26.50
2022-08-31T03:16:29.603Z,26.70
2022-08-31T03:18:58.058Z,26.50
2022-08-31T03:21:26.152Z,26.70
2022-08-31T03:23:55.527Z,26.10
2022-08-31T03:26:23.638Z,26.40
2022-08-31T03:28:51.728Z,26.50
2022-08-31T03:31:20.504Z,26.60
2022-08-31T03:33:48.669Z,26.20
2022-08-31T03:36:17.783Z,26.50
2022-08-31T03:38:45.976Z,26.40
2022-08-31T03:41:17.650Z,26.40
2022-08-31T03:43:45.766Z,26.60
2022-08-31T03:46:14.197Z,26.40
2022-08-31T03:48:42.904Z,26.40
2022-08-31T03:51:11.116Z,26.50
2022-08-31T03:53:39.212Z,26.30
2022-08-31T03:56:08.827Z,26.40
2022-08-31T03:58:39.654Z,26.40
2022-08-31T04:01:08.187Z,26.30
2022-08-31T04:03:37.301Z,26.40
2022-08-31T04:06:10.426Z,26.20
2022-08-31T04:08:38.869Z,26.10
2022-08-31T04:11:11.985Z,26.30
2022-08-31T04:13:42.860Z,26.40
2022-08-31T04:16:12.886Z,26.10
2022-08-31T04:18:41.218Z,26.30
2022-08-31T04:21:13.758Z,26.40
2022-08-31T04:23:41.916Z,26.60
2022-08-31T04:26:17.650Z,26.40
2022-08-31T04:28:47.663Z,26.00
2022-08-31T04:31:16.709Z,26.00
2022-08-31T04:33:45.017Z,26.00
2022-08-31T04:36:15.722Z,26.20
2022-08-31T04:38:45.352Z,25.90
2022-08-31T04:41:16.292Z,25.90
2022-08-31T04:43:48.587Z,26.00
2022-08-31T04:46:17.726Z,25.80
2022-08-31T04:48:46.184Z,26.20
2022-08-31T04:51:16.939Z,25.80
2022-08-31T04:53:45.837Z,26.10
2022-08-31T04:56:18.832Z,25.70
2022-08-31T04:58:50.488Z,26.00
2022-08-31T05:01:22.921Z,25.80
2022-08-31T05:03:52.935Z,25.80
2022-08-31T05:06:23.665Z,26.20
2022-08-31T05:08:54.933Z,25.80
2022-08-31T05:11:25.216Z,25.70
2022-08-31T05:13:55.468Z,25.90
2022-08-31T05:16:23.890Z,25.80
2022-08-31T05:18:53.312Z,25.80
2022-08-31T05:21:28.125Z,25.70
2022-08-31T05:23:57.996Z,25.70
2022-08-31T05:26:28.652Z,25.60
2022-08-31T05:28:59.037Z,25.80
2022-08-31T05:31:29.921Z,25.80
2022-08-31T05:33:59.217Z,25.70
2022-08-31T05:36:27.384Z,25.70
2022-08-31T05:39:00.808Z,25.70
2022-08-31T05:41:30.641Z,25.50
2022-08-31T05:44:00.040Z,25.80
2022-08-31T05:46:30.047Z,25.60
2022-08-31T05:48:58.614Z,25.70
2022-08-31T05:51:26.925Z,25.70
2022-08-31T05:53:55.224Z,25.70
2022-08-31T05:56:25.452Z,25.90
2022-08-31T05:58:56.229Z,25.50
2022-08-31T06:01:30.411Z,25.70
2022-08-31T06:03:59.230Z,25.60
2022-08-31T06:06:27.800Z,25.70
2022-08-31T06:08:55.982Z,25.90
2022-08-31T06:11:27.458Z,25.90
2022-08-31T06:13:59.528Z,25.70
2022-08-31T06:16:30.255Z,25.70
2022-08-31T06:18:59.135Z,25.70
2022-08-31T06:21:31.195Z,25.70
2022-08-31T06:24:00.029Z,25.80
2022-08-31T06:26:32.418Z,25.70
2022-08-31T06:29:03.480Z,25.90
2022-08-31T06:31:37.332Z,26.20
2022-08-31T06:34:07.549Z,25.90
2022-08-31T06:36:36.395Z,25.90
2022-08-31T06:39:05.820Z,25.90
2022-08-31T06:41:37.191Z,25.90
2022-08-31T06:44:07.813Z,25.80
2022-08-31T06:46:39.721Z,26.00
2022-08-31T06:49:08.991Z,25.80
2022-08-31T06:51:38.416Z,25.80
2022-08-31T06:54:27.930Z,25.80
2022-08-31T06:56:59.183Z,25.60
2022-08-31T06:59:29.362Z,25.90
2022-08-31T07:01:59.873Z,25.70
2022-08-31T07:04:28.837Z,25.80
2022-08-31T07:06:56.951Z,25.70
2022-08-31T07:09:25.360Z,25.70
2022-08-31T07:11:54.820Z,25.40
2022-08-31T07:14:25.545Z,25.70
2022-08-31T07:16:56.398Z,25.80
2022-08-31T07:19:26.986Z,25.80
2022-08-31T07:21:57.298Z,25.70
2022-08-31T07:24:30.120Z,25.90
2022-08-31T07:27:00.694Z,25.90
2022-08-31T07:29:31.894Z,26.20
2022-08-31T07:32:00.689Z,26.00
2022-08-31T07:34:33.786Z,25.90
2022-08-31T07:37:19.790Z,26.10
2022-08-31T07:40:08.087Z,26.10
2022-08-31T07:42:39.942Z,26.10
2022-08-31T07:45:13.495Z,26.30
2022-08-31T07:47:45.210Z,26.10
2022-08-31T07:50:16.699Z,26.60
2022-08-31T07:52:52.950Z,26.40
2022-08-31T07:55:23.374Z,26.50
2022-08-31T07:57:54.662Z,26.50
2022-08-31T08:00:26.457Z,26.40
2022-08-31T08:02:54.964Z,26.50
2022-08-31T08:05:28.915Z,26.50
2022-08-31T08:08:06.021Z,26.20
2022-08-31T08:10:40.353Z,26.40
2022-08-31T08:13:09.050Z,26.70
2022-08-31T08:15:37.307Z,26.70
2022-08-31T08:18:10.709Z,26.30
2022-08-31T08:20:40.861Z,26.30
2022-08-31T08:23:13.649Z,26.50
2022-08-31T08:25:43.601Z,26.70
2022-08-31T08:28:38.068Z,26.60
2022-08-31T08:31:06.735Z,26.60
2022-08-31T08:33:36.417Z,26.50
2022-08-31T08:36:08.815Z,26.40
2022-08-31T08:38:41.028Z,26.30
2022-08-31T08:41:15.547Z,26.10
2022-08-31T08:43:52.586Z,26.30
2022-08-31T08:46:37.659Z,26.30
2022-08-31T08:49:18.105Z,26.30
2022-08-31T08:51:51.649Z,26.00
2022-08-31T08:54:31.458Z,26.30
2022-08-31T08:57:01.661Z,25.80
2022-08-31T08:59:30.423Z,26.30
2022-08-31T09:02:04.939Z,26.10
2022-08-31T09:05:04.929Z,26.30
2022-08-31T09:08:05.034Z,25.90
2022-08-31T09:10:36.393Z,26.30
2022-08-31T09:13:20.111Z,26.10
2022-08-31T09:16:05.858Z,26.00
2022-08-31T09:18:47.252Z,26.00
2022-08-31T09:21:25.174Z,26.30
2022-08-31T09:24:02.217Z,25.90
2022-08-31T09:26:35.490Z,26.00
2022-08-31T09:29:04.688Z,26.20
2022-08-31T09:31:39.755Z,26.30
2022-08-31T09:34:13.962Z,26.00
2022-08-31T09:36:42.493Z,26.30
2022-08-31T09:39:22.746Z,26.60
2022-08-31T09:41:54.901Z,26.50
2022-08-31T09:44:31.497Z,26.40
2022-08-31T09:47:03.789Z,26.30
2022-08-31T09:49:36.665Z,26.10
2022-08-31T09:52:45.740Z,26.10
2022-08-31T09:55:24.764Z,26.40
2022-08-31T09:57:59.006Z,26.20
2022-08-31T10:00:34.297Z,26.10
2022-08-31T10:03:13.558Z,26.40
2022-08-31T10:05:44.433Z,26.40
2022-08-31T10:08:38.239Z,26.40
2022-08-31T10:11:15.677Z,26.30
2022-08-31T10:13:49.633Z,26.40
2022-08-31T10:16:26.492Z,27.00
2022-08-31T10:19:03.011Z,26.70
2022-08-31T10:21:43.998Z,26.80
2022-08-31T10:24:28.437Z,26.90
2022-08-31T10:27:14.858Z,26.90
2022-08-31T10:29:49.996Z,26.80
2022-08-31T10:32:30.444Z,27.00
2022-08-31T10:35:07.296Z,26.90
2022-08-31T10:37:49.593Z,26.80
2022-08-31T10:40:21.204Z,26.90
2022-08-31T10:43:04.817Z,26.50
2022-08-31T10:45:40.696Z,26.70
2022-08-31T10:48:12.812Z,26.70
2022-08-31T10:50:51.120Z,26.60
2022-08-31T10:53:47.171Z,26.60
2022-08-31T10:56:23.920Z,26.70
2022-08-31T10:59:10.139Z,26.50
2022-08-31T11:01:51.496Z,26.70
2022-08-31T11:04:53.820Z,26.70
2022-08-31T11:07:46.156Z,26.90
2022-08-31T11:10:28.201Z,26.90
2022-08-31T11:13:02.734Z,26.90
2022-08-31T11:16:00.049Z,26.80
2022-08-31T11:19:12.261Z,26.90
2022-08-31T11:22:14.472Z,26.90
2022-08-31T11:25:10.218Z,26.40
2022-08-31T11:27:44.113Z,26.60
2022-08-31T11:30:24.253Z,27.00
2022-08-31T11:32:58.756Z,27.30
2022-08-31T11:36:06.085Z,27.00
2022-08-31T11:38:47.844Z,26.60
2022-08-31T11:41:39.038Z,26.40
2022-08-31T11:44:09.716Z,26.90
2022-08-31T11:46:53.062Z,26.80
2022-08-31T11:49:49.807Z,27.00
2022-08-31T11:52:45.096Z,26.80
2022-08-31T11:55:28.356Z,26.90
2022-08-31T11:58:21.225Z,26.90
2022-08-31T12:01:02.856Z,27.10
2022-08-31T12:03:53.296Z,27.00
2022-08-31T12:07:08.805Z,26.90
2022-08-31T12:10:17.962Z,26.90
2022-08-31T12:13:18.392Z,26.60
2022-08-31T12:16:30.066Z,26.90
2022-08-31T12:19:46.873Z,27.30
2022-08-31T12:22:57.652Z,27.10
2022-08-31T12:25:35.364Z,27.30
2022-08-31T12:28:15.548Z,27.30
2022-08-31T12:30:51.024Z,27.50
2022-08-31T12:33:22.770Z,27.80
2022-08-31T12:35:56.286Z,27.80
2022-08-31T12:38:27.202Z,27.80
2022-08-31T12:40:57.950Z,27.50
2022-08-31T12:43:33.148Z,27.90
2022-08-31T12:46:21.248Z,28.00
2022-08-31T12:49:21.644Z,27.80
2022-08-31T12:51:55.918Z,27.90
2022-08-31T12:55:09.284Z,27.60
2022-08-31T12:57:52.208Z,27.80
2022-08-31T13:00:25.941Z,28.10
2022-08-31T13:02:57.967Z,27.70
2022-08-31T13:05:29.427Z,27.80
2022-08-31T13:07:58.845Z,27.80
2022-08-31T13:10:34.557Z,27.40
2022-08-31T13:13:04.841Z,27.80
2022-08-31T13:15:39.607Z,27.80
2022-08-31T13:18:12.556Z,28.00
2022-08-31T13:20:42.842Z,27.80
2022-08-31T13:23:15.141Z,27.70
2022-08-31T13:25:48.493Z,27.80
2022-08-31T13:28:25.951Z,28.10
2022-08-31T13:31:03.253Z,27.70
2022-08-31T13:33:34.807Z,27.70
2022-08-31T13:36:09.571Z,27.70
2022-08-31T13:38:48.297Z,27.70
2022-08-31T13:41:27.342Z,27.40
2022-08-31T13:44:02.610Z,27.70
2022-08-31T13:46:43.159Z,27.60
2022-08-31T13:49:32.145Z,27.80
2022-08-31T13:52:00.981Z,27.20
2022-08-31T13:54:32.373Z,27.40
2022-08-31T13:57:19.472Z,27.20
2022-08-31T13:59:49.108Z,27.00
2022-08-31T14:02:36.904Z,27.70
2022-08-31T14:05:10.336Z,27.20
2022-08-31T14:07:57.994Z,27.10
2022-08-31T14:10:29.031Z,27.50
2022-08-31T14:13:02.459Z,27.30
2022-08-31T14:15:37.661Z,26.90
2022-08-31T14:18:26.077Z,27.00
2022-08-31T14:21:22.710Z,26.80
2022-08-31T14:24:01.209Z,26.90
2022-08-31T14:26:33.847Z,26.90
2022-08-31T14:29:10.209Z,26.80
2022-08-31T14:31:46.784Z,27.10
2022-08-31T14:34:28.033Z,26.70
2022-08-31T14:37:02.136Z,26.90
2022-08-31T14:39:33.673Z,26.80
2022-08-31T14:42:06.800Z,26.80
2022-08-31T14:44:41.252Z,27.00
2022-08-31T14:47:09.816Z,26.70
2022-08-31T14:49:39.018Z,26.70
2022-08-31T14:52:08.247Z,26.80
2022-08-31T14:54:37.696Z,26.80
2022-08-31T14:57:11.584Z,27.00
2022-08-31T14:59:44.602Z,26.90
2022-08-31T15:02:16.213Z,27.00
2022-08-31T15:04:45.812Z,26.90
2022-08-31T15:07:15.440Z,26.80
2022-08-31T15:09:44.749Z,26.90
2022-08-31T15:12:14.764Z,26.80
2022-08-31T15:14:46.950Z,27.00
2022-08-31T15:17:19.215Z,27.00
2022-08-31T15:19:55.293Z,27.00
2022-08-31T15:22:26.026Z,27.30
2022-08-31T15:24:55.276Z,27.00
2022-08-31T15:27:25.411Z,26.90
2022-08-31T15:30:04.371Z,27.10
2022-08-31T15:32:32.498Z,27.40
2022-08-31T15:35:00.756Z,26.90
2022-08-31T15:37:32.089Z,27.00
2022-08-31T15:40:03.783Z,27.30
2022-08-31T15:42:36.605Z,27.10
2022-08-31T15:45:08.305Z,27.20
2022-08-31T15:47:58.030Z,27.00
2022-08-31T15:50:31.393Z,27.00
2022-08-31T15:53:08.829Z,27.30
2022-08-31T15:55:40.272Z,26.90
2022-08-31T15:58:09.980Z,27.00
2022-08-31T16:00:41.651Z,27.40
2022-08-31T16:03:10.308Z,27.00
2022-08-31T16:05:39.863Z,27.10
2022-08-31T16:08:10.985Z,27.00
2022-08-31T16:10:43.802Z,27.10
2022-08-31T16:13:13.349Z,27.50
2022-08-31T16:15:50.923Z,27.40
2022-08-31T16:18:21.100Z,27.80
2022-08-31T16:20:50.247Z,27.70
2022-08-31T16:23:18.997Z,27.30
2022-08-31T16:25:48.889Z,27.50
2022-08-31T16:28:19.304Z,27.90
2022-08-31T16:30:49.424Z,27.50
2022-08-31T16:33:20.240Z,27.30
2022-08-31T16:35:48.372Z,27.30
2022-08-31T16:38:16.717Z,27.50
2022-08-31T16:40:45.323Z,27.00
2022-08-31T16:43:13.535Z,27.10
2022-08-31T16:45:42.729Z,27.00
2022-08-31T16:48:30.268Z,27.30
2022-08-31T16:51:01.872Z,27.00
2022-08-31T16:53:30.547Z,26.80
2022-08-31T16:55:59.687Z,26.90
2022-08-31T16:58:50.538Z,27.30
2022-08-31T17:01:21.521Z,27.20
2022-08-31T17:03:55.756Z,27.00
2022-08-31T17:06:24.521Z,27.10
2022-08-31T17:08:57.057Z,26.70
2022-08-31T17:11:28.413Z,26.80
2022-08-31T17:14:00.325Z,26.80
2022-08-31T17:16:34.464Z,27.20
2022-08-31T17:19:10.581Z,26.80
2022-08-31T17:21:45.941Z,26.80
2022-08-31T17:24:14.853Z,26.60
2022-08-31T17:26:43.853Z,26.70
2022-08-31T17:29:12.998Z,26.60
2022-08-31T17:31:45.962Z,26.80
2022-08-31T17:34:18.810Z,26.70
2022-08-31T17:36:49.646Z,26.60
2022-08-31T17:39:20.285Z,26.70
2022-08-31T17:41:49.790Z,26.60
2022-08-31T17:44:19.905Z,26.60
2022-08-31T17:46:52.513Z,26.50
2022-08-31T17:49:25.165Z,26.60
2022-08-31T17:51:55.080Z,26.50
2022-08-31T17:54:29.939Z,26.30
2022-08-31T17:57:00.506Z,26.60
2022-08-31T17:59:32.584Z,26.30
2022-08-31T18:02:04.805Z,26.70
2022-08-31T18:04:35.722Z,26.50
2022-08-31T18:07:05.089Z,26.60
2022-08-31T18:09:36.845Z,26.60
2022-08-31T18:12:06.136Z,26.80
2022-08-31T18:14:37.894Z,26.60
2022-08-31T18:17:10.612Z,26.50
2022-08-31T18:19:40.550Z,26.70
2022-08-31T18:22:09.953Z,26.60
2022-08-31T18:24:38.972Z,26.60
2022-08-31T18:27:10.004Z,26.50
2022-08-31T18:29:40.029Z,26.50
2022-08-31T18:32:09.048Z,26.40
2022-08-31T18:34:44.509Z,26.60
2022-08-31T18:37:13.731Z,26.50
2022-08-31T18:40:00.457Z,26.60
2022-08-31T18:42:47.180Z,26.70
2022-08-31T18:45:19.672Z,26.70
2022-08-31T18:48:07.516Z,26.60
2022-08-31T18:50:40.069Z,26.60
2022-08-31T18:53:11.063Z,26.50
2022-08-31T18:55:43.574Z,26.60
2022-08-31T18:58:11.673Z,26.40
2022-08-31T19:00:40.572Z,26.40
2022-08-31T19:03:08.732Z,26.40
2022-08-31T19:05:40.913Z,26.10
2022-08-31T19:08:09.219Z,26.00
2022-08-31T19:10:37.388Z,26.20
2022-08-31T19:13:07.825Z,25.90
2022-08-31T19:15:39.844Z,26.00
2022-08-31T19:18:09.446Z,26.00
2022-08-31T19:20:37.752Z,25.90
2022-08-31T19:23:08.142Z,26.20
2022-08-31T19:25:43.187Z,25.90
2022-08-31T19:28:11.644Z,26.00
2022-08-31T19:30:40.709Z,26.00
2022-08-31T19:33:09.605Z,25.90
2022-08-31T19:35:38.256Z,25.80
2022-08-31T19:38:07.717Z,26.00
2022-08-31T19:40:39.841Z,26.30
2022-08-31T19:45:56.530Z,25.90
2022-08-31T19:48:44.098Z,25.90
2022-08-31T19:51:14.170Z,26.00
2022-08-31T19:53:44.967Z,25.90
2022-08-31T19:56:17.003Z,25.90
2022-08-31T19:58:46.889Z,25.90
2022-08-31T20:01:15.850Z,26.30
2022-08-31T20:03:45.850Z,26.00
2022-08-31T20:06:19.184Z,26.20
2022-08-31T20:08:51.138Z,26.10
2022-08-31T20:11:22.743Z,26.10
2022-08-31T20:13:51.472Z,26.20
2022-08-31T20:16:20.634Z,25.80
2022-08-31T20:18:51.203Z,25.80
2022-08-31T20:21:24.798Z,26.10
2022-08-31T20:23:58.717Z,25.70
2022-08-31T20:26:33.215Z,26.30
2022-08-31T20:29:08.894Z,26.20
2022-08-31T20:31:40.392Z,25.70
2022-08-31T20:34:09.369Z,26.10
2022-08-31T20:36:38.762Z,25.80
2022-08-31T20:39:12.045Z,25.80
2022-08-31T20:41:46.166Z,25.80
2022-08-31T20:44:16.822Z,25.80
2022-08-31T20:47:04.723Z,25.80
2022-08-31T20:49:36.396Z,25.70
2022-08-31T20:52:05.619Z,25.90
2022-08-31T20:54:35.949Z,25.80
2022-08-31T20:57:08.997Z,26.00
2022-08-31T20:59:37.712Z,26.00
2022-08-31T21:02:08.642Z,26.10
2022-08-31T21:04:39.719Z,25.80
2022-08-31T21:07:11.903Z,25.90
2022-08-31T21:09:42.671Z,25.80
2022-08-31T21:12:14.234Z,25.40
2022-08-31T21:14:47.036Z,25.60
2022-08-31T21:17:15.873Z,25.70
2022-08-31T21:19:45.080Z,26.00
2022-08-31T21:22:16.929Z,25.80
2022-08-31T21:24:47.386Z,25.70
2022-08-31T21:27:18.661Z,25.70
2022-08-31T21:29:49.848Z,25.80
2022-08-31T21:32:19.428Z,25.80
2022-08-31T21:34:48.553Z,26.10
2022-08-31T21:37:16.599Z,25.70
2022-08-31T21:39:46.080Z,25.40
2022-08-31T21:42:14.143Z,25.90
2022-08-31T21:44:42.948Z,25.80
2022-08-31T21:47:14.767Z,25.80
2022-08-31T21:49:43.766Z,25.90
2022-08-31T21:52:13.113Z,25.90
2022-08-31T21:54:44.457Z,25.70
2022-08-31T21:57:14.089Z,25.80
2022-08-31T21:59:42.158Z,25.80
2022-08-31T22:02:12.087Z,25.80
2022-08-31T22:04:43.165Z,25.70
2022-08-31T22:07:13.989Z,25.90
2022-08-31T22:09:43.141Z,25.80
2022-08-31T22:12:14.818Z,25.70
2022-08-31T22:14:44.612Z,25.70
2022-08-31T22:17:12.872Z,25.80
2022-08-31T22:19:42.874Z,25.30
2022-08-31T22:22:13.580Z,25.70
2022-08-31T22:24:42.684Z,25.70
2022-08-31T22:27:13.521Z,25.20
2022-08-31T22:29:42.045Z,25.60
2022-08-31T22:32:13.714Z,25.70
2022-08-31T22:34:43.626Z,25.80
2022-08-31T22:37:14.031Z,25.80
2022-08-31T22:39:43.305Z,25.80
2022-08-31T22:42:13.889Z,25.90
2022-08-31T22:44:43.019Z,25.80
2022-08-31T22:47:11.094Z,25.90
2022-08-31T22:49:39.221Z,26.00
2022-08-31T22:52:07.377Z,26.00
2022-08-31T22:54:36.289Z,26.20
2022-08-31T22:57:04.861Z,26.20
2022-08-31T22:59:34.245Z,25.90
2022-08-31T23:02:04.835Z,26.30
2022-08-31T23:04:35.154Z,26.00
2022-08-31T23:07:04.540Z,26.00
2022-08-31T23:09:34.145Z,26.10
2022-08-31T23:12:04.733Z,26.00
2022-08-31T23:14:35.141Z,26.10
2022-08-31T23:17:08.871Z,26.30
2022-08-31T23:19:40.264Z,26.00
2022-08-31T23:22:12.338Z,26.30
2022-08-31T23:24:46.225Z,26.10
2022-08-31T23:27:17.698Z,26.20
2022-08-31T23:29:51.643Z,26.10
2022-08-31T23:32:26.130Z,26.20
2022-08-31T23:34:56.806Z,25.90
2022-08-31T23:37:26.361Z,26.30
2022-08-31T23:39:55.903Z,25.90
2022-08-31T23:42:26.396Z,26.00
2022-08-31T23:44:57.309Z,26.00
2022-08-31T23:47:28.330Z,26.30
2022-08-31T23:49:57.807Z,26.00
2022-08-31T23:52:28.855Z,26.10
2022-08-31T23:54:59.227Z,26.20
2022-08-31T23:57:32.615Z,26.00
